Time;durP1;ratioP1;P1;durP2;ratioP2;P2;SDS_P1;SDS_P2;PMS_P1;PMS_P2;Temp;Humidity;BMP_temperature;BMP_pressure;BME280_temperature;BME280_humidity;BME280_pressure;Samples;Min_cycle;Max_cycle;Signal;HPM_P1;HPM_P2
2022/10/02 00:01:12;;;;;;;9.95;2.25;;;;;;;;;;4331666;33;20075;-65
2022/10/02 00:03:37;;;;;;;14.50;2.53;;;;;;;;;;4331790;33;20484;-66
2022/10/02 00:06:10;;;;;;;14.57;2.58;;;;;;;;;;4318710;33;20040;-65
2022/10/02 00:08:37;;;;;;;6.80;2.72;;;;;;;;;;4331779;33;20083;-66
2022/10/02 00:11:03;;;;;;;11.15;2.58;;;;;;;;;;4340200;33;20366;-66
2022/10/02 00:13:46;;;;;;;9.90;2.60;;;;;;;;;;4346763;33;20090;-66
2022/10/02 00:16:32;;;;;;;18.40;3.17;;;;;;;;;;4331511;33;20071;-67
2022/10/02 00:18:57;;;;;;;18.02;3.40;;;;;;;;;;4344684;33;20024;-65
2022/10/02 00:21:35;;;;;;;18.10;3.45;;;;;;;;;;4346120;33;20050;-66
2022/10/02 00:24:02;;;;;;;21.85;3.37;;;;;;;;;;4344915;33;20074;-66
2022/10/02 00:26:30;;;;;;;12.57;3.03;;;;;;;;;;4345823;33;20047;-67
2022/10/02 00:29:14;;;;;;;14.52;3.90;;;;;;;;;;4332970;33;20031;-66
2022/10/02 00:31:57;;;;;;;19.23;3.70;;;;;;;;;;4338317;33;20074;-65
2022/10/02 00:34:35;;;;;;;22.00;4.50;;;;;;;;;;4329853;33;20039;-65
2022/10/02 00:37:21;;;;;;;19.60;4.60;;;;;;;;;;4330266;33;20066;-66
2022/10/02 00:39:54;;;;;;;22.10;3.87;;;;;;;;;;4356510;33;20081;-74
2022/10/02 00:42:25;;;;;;;26.77;4.87;;;;;;;;;;4360731;33;20036;-74
2022/10/02 00:45:17;;;;;;;16.33;4.28;;;;;;;;;;4361347;32;20097;-74
2022/10/02 00:48:09;;;;;;;;;;;;;;;;;;;;;
2022/10/02 00:54:03;;;;;;;18.90;4.95;;;;;;;;;;4362816;32;20522;-74
2022/10/02 00:56:56;;;;;;;20.73;4.90;;;;;;;;;;4362148;33;20047;-74
2022/10/02 00:59:33;;;;;;;21.60;4.00;;;;;;;;;;4362467;32;20031;-74
2022/10/02 01:02:09;;;;;;;21.95;4.45;;;;;;;;;;4362171;32;20099;-74
2022/10/02 01:04:36;;;;;;;19.15;4.28;;;;;;;;;;4363033;32;20106;-74
2022/10/02 01:07:03;;;;;;;18.42;3.92;;;;;;;;;;4362674;32;20082;-74
2022/10/02 01:09:28;;;;;;;23.55;4.47;;;;;;;;;;4361769;32;20046;-74
2022/10/02 01:11:54;;;;;;;21.77;5.62;;;;;;;;;;4349151;33;20039;-74
2022/10/02 01:14:20;;;;;;;29.37;5.22;;;;;;;;;;4362539;32;20050;-74
2022/10/02 01:16:45;;;;;;;21.50;4.07;;;;;;;;;;4361728;32;20043;-74
2022/10/02 01:19:10;;;;;;;;;;;;;;;;;;4349396;33;20066;-74
2022/10/02 01:21:41;;;;;;;19.90;4.45;;;;;;;;;;4361799;32;19961;-74
2022/10/02 01:24:15;;;;;;;27.13;5.70;;;;;;;;;;4362168;32;20049;-74
2022/10/02 01:26:43;;;;;;;38.28;6.78;;;;;;;;;;4363109;32;20019;-74
2022/10/02 01:29:08;;;;;;;33.03;5.15;;;;;;;;;;4361286;33;20028;-74
2022/10/02 01:31:34;;;;;;;30.85;5.87;;;;;;;;;;4361718;32;20085;-75
2022/10/02 01:33:59;;;;;;;26.20;5.07;;;;;;;;;;4361988;32;20024;-74
2022/10/02 01:36:25;;;;;;;26.67;6.45;;;;;;;;;;4362289;32;20035;-74
2022/10/02 01:38:50;;;;;;;;;;;;;;;;;;4371479;32;20055;-73
2022/10/02 01:41:16;;;;;;;24.10;5.90;;;;;;;;;;4377074;32;19953;-74
2022/10/02 01:43:43;;;;;;;24.00;6.62;;;;;;;;;;4377358;32;20031;-74
2022/10/02 01:46:14;;;;;;;25.12;5.32;;;;;;;;;;4375633;32;20034;-74
2022/10/02 01:48:43;;;;;;;28.40;4.72;;;;;;;;;;4376997;32;20061;-74
2022/10/02 01:51:11;;;;;;;26.20;5.18;;;;;;;;;;4363269;32;20419;-74
2022/10/02 01:53:49;;;;;;;22.65;4.32;;;;;;;;;;4376294;32;20031;-76
2022/10/02 01:56:35;;;;;;;31.55;5.72;;;;;;;;;;4376605;32;20057;-76
2022/10/02 01:59:14;;;;;;;27.30;5.53;;;;;;;;;;4375095;32;20031;-75
2022/10/02 02:01:51;;;;;;;28.40;5.30;;;;;;;;;;4376238;32;20046;-76
2022/10/02 02:04:25;;;;;;;33.65;6.22;;;;;;;;;;4376500;32;20093;-76
2022/10/02 02:06:56;;;;;;;26.95;5.28;;;;;;;;;;4376069;32;20057;-76
2022/10/02 02:10:00;;;;;;;24.80;5.25;;;;;;;;;;4376573;32;20404;-75
2022/10/02 02:12:42;;;;;;;24.30;5.12;;;;;;;;;;4300831;33;20071;-75
2022/10/02 02:15:28;;;;;;;26.00;5.97;;;;;;;;;;4300113;33;20120;-75
2022/10/02 02:17:57;;;;;;;34.58;5.45;;;;;;;;;;4353414;32;20042;-75
2022/10/02 02:20:45;;;;;;;26.48;5.50;;;;;;;;;;4376092;32;20027;-75
2022/10/02 02:23:25;;;;;;;28.62;7.40;;;;;;;;;;4364343;32;20073;-75
2022/10/02 02:25:55;;;;;;;25.55;6.20;;;;;;;;;;4376531;32;20069;-75
2022/10/02 02:28:22;;;;;;;24.83;5.55;;;;;;;;;;4376342;32;20022;-75
2022/10/02 02:30:48;;;;;;;26.20;5.93;;;;;;;;;;4375963;32;20372;-76
2022/10/02 02:33:16;;;;;;;27.65;6.70;;;;;;;;;;4375830;32;20039;-75
2022/10/02 02:35:55;;;;;;;39.25;8.68;;;;;;;;;;4376120;32;20088;-75
2022/10/02 02:38:28;;;;;;;26.55;6.20;;;;;;;;;;4373637;32;20045;-75
2022/10/02 02:40:55;;;;;;;28.75;6.43;;;;;;;;;;4376074;32;20031;-75
2022/10/02 02:43:22;;;;;;;27.77;6.43;;;;;;;;;;4376298;32;20027;-76
2022/10/02 02:45:54;;;;;;;28.75;6.47;;;;;;;;;;4375848;32;20111;-76
2022/10/02 02:48:27;;;;;;;24.58;5.90;;;;;;;;;;4376072;32;20027;-75
2022/10/02 02:50:58;;;;;;;31.12;6.40;;;;;;;;;;4375795;32;20100;-75
2022/10/02 02:53:29;;;;;;;29.02;5.78;;;;;;;;;;4375864;32;20026;-75
2022/10/02 02:55:57;;;;;;;25.73;5.37;;;;;;;;;;4375733;32;20026;-75
2022/10/02 02:58:41;;;;;;;33.08;7.15;;;;;;;;;;4375464;32;20023;-75
2022/10/02 03:01:06;;;;;;;48.45;8.32;;;;;;;;;;4376043;32;20027;-75
2022/10/02 03:03:32;;;;;;;22.80;5.90;;;;;;;;;;4375853;32;20109;-75
2022/10/02 03:05:57;;;;;;;;;;;;;;;;;;4375818;32;20085;-75
2022/10/02 03:08:27;;;;;;;45.17;7.25;;;;;;;;;;4374815;32;19988;-75
2022/10/02 03:10:53;;;;;;;28.08;6.57;;;;;;;;;;4375746;32;20030;-76
2022/10/02 03:13:25;;;;;;;28.95;6.20;;;;;;;;;;4376076;32;20023;-75
2022/10/02 03:16:01;;;;;;;29.87;5.75;;;;;;;;;;4375660;32;20046;-75
2022/10/02 03:18:30;;;;;;;31.27;5.82;;;;;;;;;;4375767;32;20027;-75
2022/10/02 03:21:48;;;;;;;27.98;5.55;;;;;;;;;;4375207;32;20412;-75
2022/10/02 03:24:25;;;;;;;29.20;6.03;;;;;;;;;;4373459;32;20388;-76
2022/10/02 03:27:10;;;;;;;22.05;5.07;;;;;;;;;;4375066;32;20417;-77
2022/10/02 03:29:39;;;;;;;28.17;5.62;;;;;;;;;;4348514;32;20372;-76
2022/10/02 03:32:06;;;;;;;29.90;5.32;;;;;;;;;;4376479;32;20364;-76
2022/10/02 03:34:32;;;;;;;26.75;5.22;;;;;;;;;;4375790;32;20345;-76
2022/10/02 03:36:58;;;;;;;31.17;5.30;;;;;;;;;;4361780;32;20408;-76
2022/10/02 03:39:24;;;;;;;27.15;4.65;;;;;;;;;;4374940;32;20036;-76
2022/10/02 03:41:49;;;;;;;;;;;;;;;;;;4375409;32;20031;-76
2022/10/02 03:44:15;;;;;;;21.80;4.50;;;;;;;;;;4361396;32;19942;-76
2022/10/02 03:46:40;;;;;;;28.42;4.95;;;;;;;;;;4362069;32;20038;-76
2022/10/02 03:49:05;;;;;;;;;;;;;;;;;;4375748;32;20115;-77
2022/10/02 03:51:31;;;;;;;22.13;5.03;;;;;;;;;;4374793;32;19938;-76
2022/10/02 03:53:56;;;;;;;32.45;5.32;;;;;;;;;;4375231;32;20022;-76
2022/10/02 03:56:28;;;;;;;25.00;4.43;;;;;;;;;;4374737;32;20057;-76
2022/10/02 03:58:55;;;;;;;27.80;5.85;;;;;;;;;;4374785;32;20054;-76
2022/10/02 04:01:23;;;;;;;25.33;5.03;;;;;;;;;;4374910;32;20039;-76
2022/10/02 04:03:54;;;;;;;33.83;5.85;;;;;;;;;;4375183;32;20031;-76
2022/10/02 04:06:20;;;;;;;29.02;8.60;;;;;;;;;;4374857;32;20030;-76
2022/10/02 04:09:05;;;;;;;29.83;5.85;;;;;;;;;;4361072;32;20486;-75
2022/10/02 04:11:37;;;;;;;40.33;6.12;;;;;;;;;;4353276;32;20061;-75
2022/10/02 04:14:11;;;;;;;27.60;5.15;;;;;;;;;;4374757;32;20069;-76
2022/10/02 04:16:41;;;;;;;27.65;5.18;;;;;;;;;;4375017;32;20035;-76
2022/10/02 04:19:20;;;;;;;30.52;5.45;;;;;;;;;;4377615;32;20027;-76
2022/10/02 04:22:06;;;;;;;26.00;6.00;;;;;;;;;;4368168;32;20047;-76
2022/10/02 04:24:59;;;;;;;26.30;6.22;;;;;;;;;;4354792;33;20366;-76
2022/10/02 04:31:20;;;;;;;26.37;6.85;;;;;;;;;;4302338;33;20441;-76
2022/10/02 04:33:46;;;;;;;31.23;6.60;;;;;;;;;;4313285;33;20039;-75
2022/10/02 04:36:11;;;;;;;;;;;;;;;;;;4363006;32;20068;-76
2022/10/02 04:38:42;;;;;;;27.17;6.15;;;;;;;;;;4362000;32;19951;-75
2022/10/02 04:41:20;;;;;;;35.25;6.10;;;;;;;;;;4362632;32;20435;-76
2022/10/02 04:43:45;;;;;;;30.60;7.37;;;;;;;;;;4352968;32;20027;-76
2022/10/02 04:46:27;;;;;;;26.95;7.65;;;;;;;;;;4377159;32;20090;-75
2022/10/02 04:49:11;;;;;;;39.35;8.25;;;;;;;;;;4378035;32;20039;-76
2022/10/02 04:51:40;;;;;;;28.33;6.25;;;;;;;;;;4362297;32;20047;-75
2022/10/02 04:54:08;;;;;;;23.27;6.22;;;;;;;;;;4362446;32;20031;-76
2022/10/02 04:56:50;;;;;;;27.15;7.03;;;;;;;;;;4362314;32;20089;-76
2022/10/02 04:59:27;;;;;;;29.77;7.00;;;;;;;;;;4363446;32;20091;-76
2022/10/02 05:01:53;;;;;;;27.92;6.47;;;;;;;;;;4362666;32;20027;-76
2022/10/02 05:04:18;;;;;;;;;;;;;;;;;;4362732;32;20027;-76
2022/10/02 05:06:59;;;;;;;32.15;6.82;;;;;;;;;;4362361;32;19946;-76
2022/10/02 05:09:28;;;;;;;27.52;5.80;;;;;;;;;;4362399;32;20198;-76
2022/10/02 05:12:14;;;;;;;32.78;7.65;;;;;;;;;;4362789;32;20090;-76
2022/10/02 05:14:53;;;;;;;26.17;5.97;;;;;;;;;;4374203;32;20058;-76
2022/10/02 05:17:18;;;;;;;36.33;6.43;;;;;;;;;;4377415;32;20100;-75
2022/10/02 05:19:43;;;;;;;;;;;;;;;;;;4377582;32;20043;-76
2022/10/02 05:22:12;;;;;;;32.33;6.10;;;;;;;;;;4377223;32;19942;-76
2022/10/02 05:24:44;;;;;;;31.05;6.97;;;;;;;;;;4362986;32;20070;-76
2022/10/02 05:27:16;;;;;;;29.00;6.50;;;;;;;;;;4377020;32;20019;-76
2022/10/02 05:29:41;;;;;;;27.83;6.45;;;;;;;;;;4375922;32;20039;-76
2022/10/02 05:32:06;;;;;;;;;;;;;;;;;;4377431;32;20023;-76
2022/10/02 05:34:39;;;;;;;25.90;5.28;;;;;;;;;;4377176;32;19965;-76
2022/10/02 05:37:07;;;;;;;28.25;5.43;;;;;;;;;;4376338;32;20471;-76
2022/10/02 05:39:36;;;;;;;33.95;7.00;;;;;;;;;;4375919;32;20108;-76
2022/10/02 05:42:11;;;;;;;29.42;6.25;;;;;;;;;;4376962;32;20459;-76
2022/10/02 05:44:38;;;;;;;34.35;5.65;;;;;;;;;;4377133;32;20027;-76
2022/10/02 05:47:10;;;;;;;23.55;5.57;;;;;;;;;;4376764;32;20388;-76
2022/10/02 05:49:42;;;;;;;33.97;6.82;;;;;;;;;;4376476;32;20424;-76
2022/10/02 05:52:18;;;;;;;29.98;5.28;;;;;;;;;;4376317;32;20065;-76
2022/10/02 05:54:43;;;;;;;;;;;;;;;;;;4376807;32;20114;-76
2022/10/02 05:57:28;;;;;;;32.28;5.87;;;;;;;;;;4376386;32;19939;-76
2022/10/02 05:59:59;;;;;;;20.83;6.10;;;;;;;;;;4362942;32;20127;-75
2022/10/02 06:02:57;;;;;;;23.75;4.65;;;;;;;;;;4377127;32;20023;-75
2022/10/02 06:05:30;;;;;;;34.22;6.05;;;;;;;;;;4327276;32;20046;-75
2022/10/02 06:07:58;;;;;;;33.55;6.10;;;;;;;;;;4365052;32;20027;-75
2022/10/02 06:10:39;;;;;;;25.55;5.30;;;;;;;;;;4364993;32;20036;-76
2022/10/02 06:13:08;;;;;;;28.87;6.95;;;;;;;;;;4361766;32;20031;-76
2022/10/02 06:15:41;;;;;;;36.38;5.93;;;;;;;;;;4361555;32;20028;-76
2022/10/02 06:18:13;;;;;;;25.37;6.80;;;;;;;;;;4361856;32;20085;-76
2022/10/02 06:20:41;;;;;;;21.50;5.53;;;;;;;;;;4362176;32;20035;-75
2022/10/02 06:23:11;;;;;;;29.02;6.93;;;;;;;;;;4368374;32;20113;-76
2022/10/02 06:25:41;;;;;;;21.90;4.62;;;;;;;;;;4376514;32;20053;-76
2022/10/02 06:28:10;;;;;;;25.67;6.47;;;;;;;;;;4376123;32;20034;-76
2022/10/02 06:30:37;;;;;;;21.20;4.62;;;;;;;;;;4375480;32;20088;-75
2022/10/02 06:33:11;;;;;;;25.33;5.47;;;;;;;;;;4375674;32;20027;-75
2022/10/02 06:36:05;;;;;;;21.62;5.40;;;;;;;;;;4376343;32;20018;-76
2022/10/02 06:38:49;;;;;;;26.65;4.60;;;;;;;;;;4372993;32;20054;-76
2022/10/02 06:41:21;;;;;;;27.67;4.12;;;;;;;;;;4364392;32;20106;-75
2022/10/02 06:44:08;;;;;;;31.75;5.53;;;;;;;;;;4367989;32;20057;-76
2022/10/02 06:46:55;;;;;;;29.15;5.07;;;;;;;;;;4363704;32;20043;-76
2022/10/02 06:49:24;;;;;;;22.05;4.37;;;;;;;;;;4360714;32;20416;-76
2022/10/02 06:52:09;;;;;;;23.55;4.93;;;;;;;;;;4361090;32;20081;-75
2022/10/02 06:57:38;;;;;;;20.15;4.15;;;;;;;;;;4344966;32;20035;-75
2022/10/02 07:00:15;;;;;;;19.67;5.37;;;;;;;;;;4352925;32;20323;-75
2022/10/02 07:02:46;;;;;;;23.42;6.35;;;;;;;;;;4370186;32;20408;-75
2022/10/02 07:05:30;;;;;;;18.83;3.70;;;;;;;;;;4370726;32;20453;-75
2022/10/02 07:08:14;;;;;;;20.48;4.68;;;;;;;;;;4368262;32;20487;-75
2022/10/02 07:10:41;;;;;;;20.62;4.20;;;;;;;;;;4353895;32;20444;-75
2022/10/02 07:13:24;;;;;;;20.58;4.18;;;;;;;;;;4354177;32;20023;-75
2022/10/02 07:15:59;;;;;;;24.92;4.20;;;;;;;;;;4354169;32;20378;-75
2022/10/02 07:18:49;;;;;;;15.45;3.58;;;;;;;;;;4365627;32;20053;-75
2022/10/02 07:21:21;;;;;;;17.40;4.45;;;;;;;;;;4352512;32;20049;-75
2022/10/02 07:23:52;;;;;;;13.98;4.10;;;;;;;;;;4364351;32;20027;-75
2022/10/02 07:26:35;;;;;;;25.08;4.85;;;;;;;;;;4368255;32;20109;-75
2022/10/02 07:29:12;;;;;;;20.25;4.78;;;;;;;;;;4351060;32;20062;-75
2022/10/02 07:31:58;;;;;;;20.27;3.42;;;;;;;;;;4370562;32;20071;-76
2022/10/02 07:34:32;;;;;;;19.55;3.67;;;;;;;;;;4366439;32;20065;-75
2022/10/02 07:37:27;;;;;;;18.35;3.67;;;;;;;;;;4365794;32;20484;-75
2022/10/02 07:40:05;;;;;;;22.00;4.10;;;;;;;;;;4325936;33;20032;-75
2022/10/02 07:42:42;;;;;;;19.25;3.87;;;;;;;;;;4355208;33;20074;-75
2022/10/02 07:45:10;;;;;;;23.10;4.00;;;;;;;;;;4351012;33;20027;-75
2022/10/02 07:47:50;;;;;;;18.90;3.87;;;;;;;;;;4348878;33;20102;-78
2022/10/02 07:50:29;;;;;;;19.85;3.85;;;;;;;;;;4352032;33;20055;-75
2022/10/02 07:53:05;;;;;;;23.27;4.40;;;;;;;;;;4349976;33;20051;-76
2022/10/02 07:55:30;;;;;;;;;;;;;;;;;;4349888;33;20035;-75
2022/10/02 07:58:20;;;;;;;21.05;3.85;;;;;;;;;;4360655;33;19949;-75
2022/10/02 08:04:13;;;;;;;22.58;5.45;;;;;;;;;;4357096;33;20502;-75
2022/10/02 08:06:57;;;;;;;16.55;3.75;;;;;;;;;;4362721;33;20062;-76
2022/10/02 08:09:41;;;;;;;23.73;4.12;;;;;;;;;;4363087;33;20081;-76
2022/10/02 08:12:10;;;;;;;14.18;3.70;;;;;;;;;;4361781;32;20049;-76
2022/10/02 08:14:37;;;;;;;20.80;3.97;;;;;;;;;;4358076;32;20044;-76
2022/10/02 08:17:15;;;;;;;21.90;4.75;;;;;;;;;;4346260;33;20032;-76
2022/10/02 08:19:44;;;;;;;24.80;3.70;;;;;;;;;;4353728;33;20044;-76
2022/10/02 08:22:15;;;;;;;16.85;3.87;;;;;;;;;;4353750;33;20070;-75
2022/10/02 08:25:01;;;;;;;14.35;4.05;;;;;;;;;;4352541;33;20031;-75
2022/10/02 08:27:45;;;;;;;22.52;4.20;;;;;;;;;;4361302;33;20409;-75
2022/10/02 08:30:14;;;;;;;17.23;3.62;;;;;;;;;;4362720;32;20106;-75
2022/10/02 08:32:39;;;;;;;21.30;4.85;;;;;;;;;;4362391;32;20043;-76
2022/10/02 08:35:15;;;;;;;15.75;4.15;;;;;;;;;;4362462;32;20027;-76
2022/10/02 08:38:21;;;;;;;22.30;4.43;;;;;;;;;;4362421;32;20036;-76
2022/10/02 08:41:11;;;;;;;25.73;4.10;;;;;;;;;;4298443;33;20133;-75
2022/10/02 08:43:55;;;;;;;17.70;3.55;;;;;;;;;;4355551;33;20035;-76
2022/10/02 08:46:23;;;;;;;14.45;3.65;;;;;;;;;;4362343;33;20051;-76
2022/10/02 08:49:01;;;;;;;18.95;4.53;;;;;;;;;;4360544;32;20074;-76
2022/10/02 08:51:29;;;;;;;18.52;3.80;;;;;;;;;;4363065;32;20035;-77
2022/10/02 08:53:56;;;;;;;19.62;4.28;;;;;;;;;;4362344;32;20353;-76
2022/10/02 08:56:22;;;;;;;21.25;4.82;;;;;;;;;;4362695;32;20362;-76
2022/10/02 08:58:47;;;;;;;16.25;3.87;;;;;;;;;;4362329;32;20057;-76
2022/10/02 09:01:30;;;;;;;26.95;4.70;;;;;;;;;;4362496;32;20019;-76
2022/10/02 09:04:09;;;;;;;16.00;3.85;;;;;;;;;;4356533;32;20110;-75
2022/10/02 09:06:36;;;;;;;21.55;4.20;;;;;;;;;;4347349;33;20066;-75
2022/10/02 09:09:20;;;;;;;23.00;4.12;;;;;;;;;;4347271;33;20073;-74
2022/10/02 09:11:45;;;;;;;14.05;4.43;;;;;;;;;;4348159;33;20063;-74
2022/10/02 09:14:19;;;;;;;19.73;3.78;;;;;;;;;;4348032;33;20098;-75
2022/10/02 09:16:55;;;;;;;24.58;4.65;;;;;;;;;;4347448;33;20146;-75
2022/10/02 09:19:29;;;;;;;20.95;4.22;;;;;;;;;;4348092;33;20023;-74
2022/10/02 09:22:04;;;;;;;15.27;3.47;;;;;;;;;;4348731;33;20027;-75
2022/10/02 09:24:59;;;;;;;20.10;3.47;;;;;;;;;;4353623;33;20027;-74
2022/10/02 09:27:28;;;;;;;14.70;3.70;;;;;;;;;;4348831;32;20023;-74
2022/10/02 09:30:13;;;;;;;17.33;3.42;;;;;;;;;;4362053;32;20028;-74
2022/10/02 09:32:51;;;;;;;17.52;3.92;;;;;;;;;;4331089;33;20089;-74
2022/10/02 09:35:34;;;;;;;24.30;4.05;;;;;;;;;;4348264;33;20082;-74
2022/10/02 09:38:23;;;;;;;15.35;3.40;;;;;;;;;;4361406;32;20065;-74
2022/10/02 09:40:54;;;;;;;16.75;4.35;;;;;;;;;;4370823;32;20129;-74
2022/10/02 09:43:42;;;;;;;12.77;2.92;;;;;;;;;;4376933;32;20057;-75
2022/10/02 09:46:10;;;;;;;16.23;4.12;;;;;;;;;;4376477;32;20035;-75
2022/10/02 09:48:48;;;;;;;18.67;3.65;;;;;;;;;;4376605;32;20471;-74
2022/10/02 09:51:35;;;;;;;12.13;3.35;;;;;;;;;;4376777;32;20023;-74
2022/10/02 09:54:00;;;;;;;;;;;;;;;;;;4362921;32;20101;-74
2022/10/02 09:56:33;;;;;;;18.20;3.57;;;;;;;;;;4369692;32;19942;-74
2022/10/02 09:59:17;;;;;;;15.68;3.37;;;;;;;;;;4376353;32;20427;-74
2022/10/02 10:01:59;;;;;;;13.62;3.08;;;;;;;;;;4376016;32;20026;-75
2022/10/02 10:04:33;;;;;;;17.55;3.33;;;;;;;;;;4377287;32;20019;-76
2022/10/02 10:07:12;;;;;;;15.25;3.28;;;;;;;;;;4362670;32;20058;-76
2022/10/02 10:09:57;;;;;;;12.37;3.55;;;;;;;;;;4377167;32;20031;-75
2022/10/02 10:12:34;;;;;;;12.88;2.72;;;;;;;;;;4376543;32;20027;-75
2022/10/02 10:14:59;;;;;;;14.10;3.22;;;;;;;;;;4377314;32;20019;-74
2022/10/02 10:17:29;;;;;;;16.35;3.70;;;;;;;;;;4376095;32;20100;-75
2022/10/02 10:20:00;;;;;;;16.60;4.00;;;;;;;;;;4376901;32;20023;-74
2022/10/02 10:22:56;;;;;;;19.92;3.85;;;;;;;;;;4375704;32;20052;-75
2022/10/02 10:25:40;;;;;;;18.73;3.65;;;;;;;;;;4376314;32;20385;-75
2022/10/02 10:28:23;;;;;;;19.67;3.25;;;;;;;;;;4376348;32;20427;-75
2022/10/02 10:31:13;;;;;;;11.63;3.35;;;;;;;;;;4377682;32;20124;-74
2022/10/02 10:33:57;;;;;;;;;;;;;;;;;;;;;
2022/10/02 10:39:45;;;;;;;15.02;3.00;;;;;;;;;;4375583;32;20089;-74
2022/10/02 10:42:23;;;;;;;14.02;2.95;;;;;;;;;;4376103;32;20413;-74
2022/10/02 10:45:07;;;;;;;16.27;3.97;;;;;;;;;;4375741;32;20058;-73
2022/10/02 10:47:45;;;;;;;18.42;3.08;;;;;;;;;;4375258;32;20361;-74
2022/10/02 10:53:32;;;;;;;18.85;4.20;;;;;;;;;;4363301;32;20112;-74
2022/10/02 10:56:20;;;;;;;16.75;3.50;;;;;;;;;;4376088;32;20087;-74
2022/10/02 10:58:57;;;;;;;20.00;3.42;;;;;;;;;;4375554;32;20057;-74
2022/10/02 11:01:35;;;;;;;16.35;3.42;;;;;;;;;;4376443;32;20275;-74
2022/10/02 11:04:15;;;;;;;15.48;2.70;;;;;;;;;;4375821;32;20080;-74
2022/10/02 11:06:53;;;;;;;13.60;3.33;;;;;;;;;;4376384;32;20018;-74
2022/10/02 11:09:34;;;;;;;10.85;3.35;;;;;;;;;;4375783;32;20432;-75
2022/10/02 11:12:20;;;;;;;10.88;2.70;;;;;;;;;;4361394;32;20031;-73
2022/10/02 11:14:56;;;;;;;13.30;3.17;;;;;;;;;;4375203;32;20031;-73
2022/10/02 11:17:40;;;;;;;10.18;3.30;;;;;;;;;;4375710;32;20056;-74
2022/10/02 11:20:14;;;;;;;16.33;2.97;;;;;;;;;;4375197;32;20027;-74
2022/10/02 11:22:55;;;;;;;12.27;3.62;;;;;;;;;;4374752;32;20046;-74
2022/10/02 11:25:20;;;;;;;13.88;3.50;;;;;;;;;;4364823;32;20027;-74
2022/10/02 11:28:09;;;;;;;9.05;3.58;;;;;;;;;;4360505;32;20455;-73
2022/10/02 11:30:52;;;;;;;11.60;3.30;;;;;;;;;;4375396;32;20027;-74
2022/10/02 11:36:42;;;;;;;15.95;3.50;;;;;;;;;;4371035;32;20072;-74
2022/10/02 11:42:32;;;;;;;12.27;3.33;;;;;;;;;;4345394;33;20050;-74
2022/10/02 11:45:27;;;;;;;10.73;2.75;;;;;;;;;;4349136;32;20054;-74
2022/10/02 11:48:22;;;;;;;8.65;2.80;;;;;;;;;;4360535;33;20058;-74
2022/10/02 11:51:09;;;;;;;19.83;4.22;;;;;;;;;;4330546;33;20202;-74
2022/10/02 11:54:04;;;;;;;15.75;3.67;;;;;;;;;;4345631;33;20032;-74
2022/10/02 11:56:46;;;;;;;17.27;3.37;;;;;;;;;;4345798;33;20023;-74
2022/10/02 11:59:17;;;;;;;10.93;3.12;;;;;;;;;;4345773;33;20077;-74
2022/10/02 12:01:44;;;;;;;19.30;3.83;;;;;;;;;;4351858;33;20099;-74
2022/10/02 12:04:32;;;;;;;19.45;4.05;;;;;;;;;;4349334;33;20049;-74
2022/10/02 12:06:59;;;;;;;16.27;3.50;;;;;;;;;;4353441;33;20129;-73
2022/10/02 12:09:37;;;;;;;15.95;3.30;;;;;;;;;;4353348;33;20027;-73
2022/10/02 12:12:18;;;;;;;14.70;3.30;;;;;;;;;;4349407;33;20371;-73
2022/10/02 12:14:49;;;;;;;15.95;3.58;;;;;;;;;;4356661;33;20028;-74
2022/10/02 12:17:33;;;;;;;18.05;4.18;;;;;;;;;;4357173;32;20418;-73
2022/10/02 12:28:57;;;;;;;16.42;4.22;;;;;;;;;;4360013;33;20038;-74
2022/10/02 12:31:29;;;;;;;15.90;4.03;;;;;;;;;;4358529;33;20069;-74
2022/10/02 12:34:05;;;;;;;15.75;3.25;;;;;;;;;;4360192;32;20080;-74
2022/10/02 12:36:40;;;;;;;12.37;3.37;;;;;;;;;;4359842;32;20042;-74
2022/10/02 12:39:21;;;;;;;17.30;3.03;;;;;;;;;;4360826;32;20031;-74
2022/10/02 12:42:04;;;;;;;13.50;3.47;;;;;;;;;;4373838;32;20089;-74
2022/10/02 12:44:38;;;;;;;11.15;3.25;;;;;;;;;;4378002;32;20069;-74
2022/10/02 12:47:23;;;;;;;10.02;3.10;;;;;;;;;;4377183;32;20035;-74
2022/10/02 12:56:42;;;;;;;15.77;3.67;;;;;;;;;;4345370;32;20031;-75
2022/10/02 12:59:12;;;;;;;12.80;2.87;;;;;;;;;;4364276;32;20018;-75
2022/10/02 13:02:05;;;;;;;11.95;3.50;;;;;;;;;;4377393;32;20023;-75
2022/10/02 13:04:48;;;;;;;11.38;3.75;;;;;;;;;;4349010;32;20065;-74
2022/10/02 13:07:32;;;;;;;10.35;2.60;;;;;;;;;;4377384;32;20086;-74
2022/10/02 13:10:04;;;;;;;13.23;3.22;;;;;;;;;;4377494;32;20031;-74
2022/10/02 13:12:55;;;;;;;15.23;3.70;;;;;;;;;;4377150;32;20050;-74
2022/10/02 13:15:21;;;;;;;16.58;3.92;;;;;;;;;;4377444;32;20031;-74
2022/10/02 13:17:49;;;;;;;21.40;4.62;;;;;;;;;;4376843;32;20030;-74
2022/10/02 13:20:39;;;;;;;11.85;3.30;;;;;;;;;;4372685;32;20049;-74
2022/10/02 13:23:13;;;;;;;8.07;2.95;;;;;;;;;;4376173;32;20053;-74
2022/10/02 13:25:46;;;;;;;12.55;3.55;;;;;;;;;;4377205;32;20089;-75
2022/10/02 13:28:24;;;;;;;12.02;3.97;;;;;;;;;;4377243;32;20022;-74
2022/10/02 13:31:10;;;;;;;13.20;3.97;;;;;;;;;;4362471;32;20063;-74
2022/10/02 13:33:41;;;;;;;9.55;3.97;;;;;;;;;;4361133;33;20357;-74
2022/10/02 13:36:06;;;;;;;8.23;3.08;;;;;;;;;;4375815;32;20065;-75
2022/10/02 13:38:50;;;;;;;11.00;2.53;;;;;;;;;;4376420;32;20090;-74
2022/10/02 13:41:28;;;;;;;15.82;3.58;;;;;;;;;;4376391;32;20105;-74
2022/10/02 13:44:13;;;;;;;12.52;3.45;;;;;;;;;;4364038;32;20463;-75
2022/10/02 13:46:44;;;;;;;16.70;3.85;;;;;;;;;;4361249;32;20035;-76
2022/10/02 13:49:30;;;;;;;17.75;3.72;;;;;;;;;;4376547;32;20050;-76
2022/10/02 13:52:00;;;;;;;16.08;4.10;;;;;;;;;;4376124;32;20061;-75
2022/10/02 13:54:36;;;;;;;13.40;3.65;;;;;;;;;;4350662;32;20015;-74
2022/10/02 13:57:07;;;;;;;21.73;3.83;;;;;;;;;;4348366;33;20031;-75
2022/10/02 13:59:40;;;;;;;15.73;3.37;;;;;;;;;;4365204;32;20054;-75
2022/10/02 14:02:15;;;;;;;14.15;3.05;;;;;;;;;;4376443;32;20074;-75
2022/10/02 14:04:45;;;;;;;17.08;3.40;;;;;;;;;;4377143;32;20393;-75
2022/10/02 14:07:10;;;;;;;15.73;3.42;;;;;;;;;;4367230;32;20433;-74
2022/10/02 14:09:48;;;;;;;13.80;3.17;;;;;;;;;;4368028;32;20063;-74
2022/10/02 14:12:21;;;;;;;13.77;3.72;;;;;;;;;;4363784;32;20042;-74
2022/10/02 14:14:55;;;;;;;9.82;2.60;;;;;;;;;;4368252;32;20414;-74
2022/10/02 14:17:27;;;;;;;12.02;3.70;;;;;;;;;;4372318;32;20486;-76
2022/10/02 14:19:52;;;;;;;11.48;2.95;;;;;;;;;;4360142;32;20381;-76
2022/10/02 14:22:32;;;;;;;11.45;3.30;;;;;;;;;;4361201;32;20062;-76
2022/10/02 14:25:16;;;;;;;10.38;3.33;;;;;;;;;;4362951;32;20038;-76
2022/10/02 14:27:52;;;;;;;11.65;3.97;;;;;;;;;;4375211;32;20035;-76
2022/10/02 14:30:20;;;;;;;13.55;3.75;;;;;;;;;;4376699;32;20027;-76
2022/10/02 14:32:51;;;;;;;13.70;3.55;;;;;;;;;;4376683;32;20027;-76
2022/10/02 14:35:21;;;;;;;8.98;3.15;;;;;;;;;;4362379;32;20358;-76
2022/10/02 14:37:56;;;;;;;13.38;3.42;;;;;;;;;;4376246;32;20236;-77
2022/10/02 14:40:27;;;;;;;16.92;3.10;;;;;;;;;;4375688;32;20027;-76
2022/10/02 14:42:52;;;;;;;12.05;3.65;;;;;;;;;;4377296;32;20468;-76
2022/10/02 14:45:30;;;;;;;11.93;3.60;;;;;;;;;;4375873;32;20027;-76
2022/10/02 14:48:06;;;;;;;16.17;3.97;;;;;;;;;;4376183;32;20031;-76
2022/10/02 14:50:50;;;;;;;13.13;3.80;;;;;;;;;;4375027;32;20022;-76
2022/10/02 14:53:33;;;;;;;13.73;3.65;;;;;;;;;;4375818;32;20027;-75
2022/10/02 14:56:26;;;;;;;15.15;4.07;;;;;;;;;;4375727;32;20066;-76
2022/10/02 14:59:10;;;;;;;14.05;3.80;;;;;;;;;;4375861;32;20082;-76
2022/10/02 15:01:42;;;;;;;12.63;3.25;;;;;;;;;;4375468;32;20064;-75
2022/10/02 15:04:13;;;;;;;13.75;4.00;;;;;;;;;;4374966;32;20083;-76
2022/10/02 15:06:45;;;;;;;13.25;4.00;;;;;;;;;;4376083;32;20041;-75
2022/10/02 15:09:19;;;;;;;14.90;4.25;;;;;;;;;;4375494;32;20026;-76
2022/10/02 15:12:05;;;;;;;18.40;3.87;;;;;;;;;;4370109;32;20084;-76
2022/10/02 15:14:48;;;;;;;12.98;3.37;;;;;;;;;;4365138;32;20089;-76
2022/10/02 15:20:21;;;;;;;15.13;3.40;;;;;;;;;;4375376;32;20065;-77
2022/10/02 15:26:10;;;;;;;13.85;3.47;;;;;;;;;;4375273;32;20088;-76
2022/10/02 15:28:36;;;;;;;;;;;;;;;;;;4364445;32;20106;-75
2022/10/02 15:31:25;;;;;;;18.67;3.50;;;;;;;;;;4360805;32;20364;-76
2022/10/02 15:34:00;;;;;;;11.73;3.10;;;;;;;;;;4375618;32;20035;-76
2022/10/02 15:36:36;;;;;;;15.57;3.92;;;;;;;;;;4375160;32;20080;-76
2022/10/02 15:39:24;;;;;;;19.83;2.50;;;;;;;;;;4375118;32;20076;-76
2022/10/02 15:42:09;;;;;;;10.25;3.75;;;;;;;;;;4374924;32;20348;-75
2022/10/02 15:44:58;;;;;;;16.98;3.95;;;;;;;;;;4375546;32;20101;-76
2022/10/02 15:47:34;;;;;;;11.57;3.33;;;;;;;;;;4374945;32;20031;-75
2022/10/02 15:50:08;;;;;;;14.90;3.12;;;;;;;;;;4364942;32;20035;-75
2022/10/02 15:52:43;;;;;;;19.62;4.28;;;;;;;;;;4375497;32;20035;-75
2022/10/02 15:55:18;;;;;;;16.83;3.62;;;;;;;;;;4375286;32;20058;-75
2022/10/02 15:58:20;;;;;;;13.50;3.58;;;;;;;;;;4374611;32;20098;-75
2022/10/02 16:01:10;;;;;;;14.35;3.40;;;;;;;;;;4361289;32;20396;-75
2022/10/02 16:03:44;;;;;;;18.65;4.68;;;;;;;;;;4375551;32;20027;-75
2022/10/02 16:06:20;;;;;;;17.80;3.53;;;;;;;;;;4374627;32;20059;-75
2022/10/02 16:09:00;;;;;;;12.15;4.25;;;;;;;;;;4361028;32;20433;-75
2022/10/02 16:11:35;;;;;;;17.75;3.87;;;;;;;;;;4374997;32;20030;-76
2022/10/02 16:14:36;;;;;;;19.40;3.65;;;;;;;;;;4375966;32;20047;-75